Terminal Aerodrome Forecast
Issued by NWS North Platte, NE

Home | Current Version | Previous Version | Graphics & Text | Print | Product List | Glossary On
Versions: 1 2 3 4 5 6 7 8 9 10 11 12 13 14 15 16 17
000
FTUS43 KLBF 251140
TAFVTN
TAF
KVTN 251140Z 2512/2612 19010G18KT P6SM SCT250
     FM260000 04015G25KT P6SM VCTS BKN120CB
     FM260600 01008KT P6SM OVC030
     FM261100 01007KT P6SM OVC010=

USA.gov is the U.S. government's official web portal to all federal, state and local government web resources and services.